Adams Corners, NY

4:47 PM EST on February 07, 2016 (GMT -0500)
Twilight Manor | | Change Station
CLOSE
Current Station
Personal Weather Station
Location: Putnam Valley, NY
Elevation: 705 ft
Nearby Weather Stations

Elev 705 ft 41.39 °N, 73.84 °W | Updated 3 seconds ago

Partly Cloudy
Partly Cloudy
42.1 °F
Feels Like 42 °F
N
0.0
Wind Variable Wind from SE
Gusts 0.0 mph

Today
High -- | Low -- °F
--% Chance of Precip.
Yesterday
High -- | Low -- °F
Precip. -- in
Pressure 30.02 in
Visibility 20.0 miles
Clouds Clear
Windchill 42 °F
Dew Point 20 °F
Humidity 40%
Rainfall 0.07 in
Snow Depth Not available.
7:00 AM 5:18 PM
Waning Crescent, 1% visible
METAR KSWF 072145Z VRB04KT 20SM SKC 07/M06 A3002
Pressure 30.02 in
Visibility 20.0 miles
Clouds Clear
Windchill 42 °F
Dew Point 20 °F
Humidity 40%
Rainfall 0.07 in
Snow Depth Not available.
7:00 AM 5:18 PM
Waning Crescent, 1% visible
METAR KSWF 072145Z VRB04KT 20SM SKC 07/M06 A3002

10-Day Weather Forecast

Almanac

Astronomy

Feb. 07, 2016 Rise Set
Actual Time
Civil Twilight
Nautical Twilight
Astronomical Twilight
Moon
Length of Visible Light
Length of Day
Tomorrow will be .
, % of the Moon is Illuminated

Today's Extremes

State Highs State Lows

Community

WunderPhotos

Upload Photos

1,891,304 photos uploaded!

WunderBlog® & News

Nearby

Air Quality

  Air Quality AQ Index Pollutant
Not available.

Snow Depth

Station Depth Elevation

Earthquake Activity

City Distance Mag. Time & Date
Minimum magnitude displayed is 2.5.

Coastal Water Temperatures

Place Temperature

Stations

Nearby Weather Stations

Station Location Temp. Windchill Dew Point Humidity Wind Precip. Elev Updated Type
                   

Watches & Warnings

There are currently no watches in effect.